sensor_id;sensor_type;location;lat;lon;timestamp;P1;durP1;ratioP1;P2;durP2;ratioP2
55112;SDS011;41006;50.920;3.456;2023-07-16T00:00:09;14.82;;;10.70;;
55112;SDS011;41006;50.920;3.456;2023-07-16T00:00:40;12.77;;;11.07;;
55112;SDS011;41006;50.920;3.456;2023-07-16T00:01:11;14.27;;;12.80;;
55112;SDS011;41006;50.920;3.456;2023-07-16T00:01:43;14.60;;;11.18;;
55112;SDS011;41006;50.920;3.456;2023-07-16T00:02:16;17.25;;;12.15;;
55112;SDS011;41006;50.920;3.456;2023-07-16T00:02:46;14.52;;;13.13;;
55112;SDS011;41006;50.920;3.456;2023-07-16T00:03:23;16.10;;;14.38;;
55112;SDS011;41006;50.920;3.456;2023-07-16T00:03:54;15.13;;;13.57;;
55112;SDS011;41006;50.920;3.456;2023-07-16T00:04:24;17.00;;;15.13;;
55112;SDS011;41006;50.920;3.456;2023-07-16T00:04:56;16.00;;;14.63;;
55112;SDS011;41006;50.920;3.456;2023-07-16T00:05:32;17.48;;;15.23;;
55112;SDS011;41006;50.920;3.456;2023-07-16T00:06:06;17.90;;;15.93;;
55112;SDS011;41006;50.920;3.456;2023-07-16T00:06:39;17.35;;;15.70;;
55112;SDS011;41006;50.920;3.456;2023-07-16T00:07:09;20.52;;;16.35;;
55112;SDS011;41006;50.920;3.456;2023-07-16T00:07:43;18.00;;;16.50;;
55112;SDS011;41006;50.920;3.456;2023-07-16T00:08:15;17.60;;;16.05;;
55112;SDS011;41006;50.920;3.456;2023-07-16T00:08:48;16.88;;;15.13;;
55112;SDS011;41006;50.920;3.456;2023-07-16T00:09:21;17.73;;;16.05;;
55112;SDS011;41006;50.920;3.456;2023-07-16T00:09:51;17.38;;;15.63;;
55112;SDS011;41006;50.920;3.456;2023-07-16T00:10:21;16.67;;;15.35;;
55112;SDS011;41006;50.920;3.456;2023-07-16T00:10:54;18.30;;;16.45;;
55112;SDS011;41006;50.920;3.456;2023-07-16T00:11:27;18.33;;;16.90;;
55112;SDS011;41006;50.920;3.456;2023-07-16T00:12:00;19.27;;;17.33;;
55112;SDS011;41006;50.920;3.456;2023-07-16T00:12:32;18.33;;;17.08;;
55112;SDS011;41006;50.920;3.456;2023-07-16T00:13:07;18.38;;;16.75;;
55112;SDS011;41006;50.920;3.456;2023-07-16T00:13:38;18.63;;;17.00;;
55112;SDS011;41006;50.920;3.456;2023-07-16T00:14:09;22.23;;;16.98;;
55112;SDS011;41006;50.920;3.456;2023-07-16T00:14:43;18.90;;;17.27;;
55112;SDS011;41006;50.920;3.456;2023-07-16T00:15:18;18.95;;;17.13;;
55112;SDS011;41006;50.920;3.456;2023-07-16T00:15:53;20.50;;;18.45;;
55112;SDS011;41006;50.920;3.456;2023-07-16T00:16:23;19.05;;;17.48;;
55112;SDS011;41006;50.920;3.456;2023-07-16T00:16:57;19.20;;;17.38;;
55112;SDS011;41006;50.920;3.456;2023-07-16T00:17:27;19.65;;;18.10;;
55112;SDS011;41006;50.920;3.456;2023-07-16T00:17:58;19.33;;;17.75;;
55112;SDS011;41006;50.920;3.456;2023-07-16T00:18:30;19.85;;;18.02;;
55112;SDS011;41006;50.920;3.456;2023-07-16T00:19:05;18.92;;;17.30;;
55112;SDS011;41006;50.920;3.456;2023-07-16T00:19:39;19.33;;;17.98;;
55112;SDS011;41006;50.920;3.456;2023-07-16T00:20:12;19.23;;;17.63;;
55112;SDS011;41006;50.920;3.456;2023-07-16T00:20:42;19.33;;;17.35;;
55112;SDS011;41006;50.920;3.456;2023-07-16T00:21:12;19.02;;;17.38;;
55112;SDS011;41006;50.920;3.456;2023-07-16T00:21:50;18.65;;;17.17;;
55112;SDS011;41006;50.920;3.456;2023-07-16T00:22:20;19.77;;;18.02;;
55112;SDS011;41006;50.920;3.456;2023-07-16T00:22:53;21.48;;;17.08;;
55112;SDS011;41006;50.920;3.456;2023-07-16T00:23:24;19.00;;;17.08;;
55112;SDS011;41006;50.920;3.456;2023-07-16T00:23:56;19.45;;;18.08;;
55112;SDS011;41006;50.920;3.456;2023-07-16T00:24:29;20.70;;;18.73;;
55112;SDS011;41006;50.920;3.456;2023-07-16T00:25:00;19.92;;;18.42;;
55112;SDS011;41006;50.920;3.456;2023-07-16T00:25:32;21.35;;;18.95;;
55112;SDS011;41006;50.920;3.456;2023-07-16T00:26:06;22.40;;;18.33;;
55112;SDS011;41006;50.920;3.456;2023-07-16T00:26:39;21.73;;;19.58;;
55112;SDS011;41006;50.920;3.456;2023-07-16T00:27:09;20.20;;;18.08;;
55112;SDS011;41006;50.920;3.456;2023-07-16T00:27:40;20.05;;;18.38;;
55112;SDS011;41006;50.920;3.456;2023-07-16T00:28:10;21.02;;;18.88;;
55112;SDS011;41006;50.920;3.456;2023-07-16T00:28:43;19.52;;;17.95;;
55112;SDS011;41006;50.920;3.456;2023-07-16T00:29:18;21.02;;;19.38;;
55112;SDS011;41006;50.920;3.456;2023-07-16T00:29:50;19.85;;;18.25;;
55112;SDS011;41006;50.920;3.456;2023-07-16T00:30:21;19.70;;;17.92;;
55112;SDS011;41006;50.920;3.456;2023-07-16T00:30:56;19.80;;;18.10;;
55112;SDS011;41006;50.920;3.456;2023-07-16T00:31:31;20.25;;;18.25;;
55112;SDS011;41006;50.920;3.456;2023-07-16T00:32:04;21.13;;;19.15;;
55112;SDS011;41006;50.920;3.456;2023-07-16T00:32:38;20.13;;;18.75;;
55112;SDS011;41006;50.920;3.456;2023-07-16T00:33:11;19.95;;;18.52;;
55112;SDS011;41006;50.920;3.456;2023-07-16T00:33:43;21.65;;;19.70;;
55112;SDS011;41006;50.920;3.456;2023-07-16T00:34:16;20.52;;;18.58;;
55112;SDS011;41006;50.920;3.456;2023-07-16T00:34:46;20.20;;;18.33;;
55112;SDS011;41006;50.920;3.456;2023-07-16T00:35:19;20.90;;;18.88;;
55112;SDS011;41006;50.920;3.456;2023-07-16T00:35:52;19.95;;;18.52;;
55112;SDS011;41006;50.920;3.456;2023-07-16T00:36:24;20.55;;;18.95;;
55112;SDS011;41006;50.920;3.456;2023-07-16T00:36:57;20.77;;;19.17;;
55112;SDS011;41006;50.920;3.456;2023-07-16T00:37:32;19.02;;;17.67;;
55112;SDS011;41006;50.920;3.456;2023-07-16T00:38:05;22.45;;;20.45;;
55112;SDS011;41006;50.920;3.456;2023-07-16T00:38:38;22.10;;;20.30;;
55112;SDS011;41006;50.920;3.456;2023-07-16T00:39:10;20.08;;;18.58;;
55112;SDS011;41006;50.920;3.456;2023-07-16T00:39:40;22.08;;;20.27;;
55112;SDS011;41006;50.920;3.456;2023-07-16T00:40:11;20.77;;;19.17;;
55112;SDS011;41006;50.920;3.456;2023-07-16T00:40:41;19.42;;;18.25;;
55112;SDS011;41006;50.920;3.456;2023-07-16T00:41:14;21.33;;;19.48;;
55112;SDS011;41006;50.920;3.456;2023-07-16T00:41:44;20.55;;;18.98;;
55112;SDS011;41006;50.920;3.456;2023-07-16T00:42:15;20.17;;;18.58;;
55112;SDS011;41006;50.920;3.456;2023-07-16T00:42:45;20.60;;;18.70;;
55112;SDS011;41006;50.920;3.456;2023-07-16T00:43:18;20.45;;;18.90;;
55112;SDS011;41006;50.920;3.456;2023-07-16T00:43:48;20.40;;;18.40;;
55112;SDS011;41006;50.920;3.456;2023-07-16T00:44:21;21.42;;;19.52;;
55112;SDS011;41006;50.920;3.456;2023-07-16T00:44:51;18.13;;;16.35;;
55112;SDS011;41006;50.920;3.456;2023-07-16T00:45:24;18.65;;;17.08;;
55112;SDS011;41006;50.920;3.456;2023-07-16T00:45:57;17.17;;;15.82;;
55112;SDS011;41006;50.920;3.456;2023-07-16T00:46:27;17.10;;;15.65;;
55112;SDS011;41006;50.920;3.456;2023-07-16T00:47:01;22.35;;;16.48;;
55112;SDS011;41006;50.920;3.456;2023-07-16T00:47:31;17.38;;;16.13;;
55112;SDS011;41006;50.920;3.456;2023-07-16T00:48:02;18.17;;;15.57;;
55112;SDS011;41006;50.920;3.456;2023-07-16T00:48:35;17.95;;;16.38;;
55112;SDS011;41006;50.920;3.456;2023-07-16T00:49:10;17.85;;;16.10;;
55112;SDS011;41006;50.920;3.456;2023-07-16T00:49:43;17.55;;;15.77;;
55112;SDS011;41006;50.920;3.456;2023-07-16T00:50:14;17.85;;;15.38;;
55112;SDS011;41006;50.920;3.456;2023-07-16T00:50:44;16.17;;;14.70;;
55112;SDS011;41006;50.920;3.456;2023-07-16T00:51:19;16.10;;;14.52;;
55112;SDS011;41006;50.920;3.456;2023-07-16T00:51:54;16.42;;;15.02;;
55112;SDS011;41006;50.920;3.456;2023-07-16T00:52:28;15.93;;;14.40;;
55112;SDS011;41006;50.920;3.456;2023-07-16T00:52:58;14.93;;;13.63;;
55112;SDS011;41006;50.920;3.456;2023-07-16T00:53:31;15.05;;;13.88;;
55112;SDS011;41006;50.920;3.456;2023-07-16T00:54:06;15.20;;;13.90;;
55112;SDS011;41006;50.920;3.456;2023-07-16T00:54:39;14.43;;;13.27;;
55112;SDS011;41006;50.920;3.456;2023-07-16T00:55:14;14.45;;;13.25;;
55112;SDS011;41006;50.920;3.456;2023-07-16T00:55:44;15.93;;;14.35;;
55112;SDS011;41006;50.920;3.456;2023-07-16T00:56:16;15.07;;;13.88;;
55112;SDS011;41006;50.920;3.456;2023-07-16T00:56:49;15.32;;;13.85;;
55112;SDS011;41006;50.920;3.456;2023-07-16T00:57:22;16.10;;;13.80;;
55112;SDS011;41006;50.920;3.456;2023-07-16T00:57:53;14.65;;;13.27;;
55112;SDS011;41006;50.920;3.456;2023-07-16T00:58:25;15.40;;;13.95;;
55112;SDS011;41006;50.920;3.456;2023-07-16T00:58:58;13.75;;;12.40;;
55112;SDS011;41006;50.920;3.456;2023-07-16T00:59:28;14.98;;;12.25;;
55112;SDS011;41006;50.920;3.456;2023-07-16T00:59:59;13.70;;;12.70;;
55112;SDS011;41006;50.920;3.456;2023-07-16T01:00:33;14.38;;;12.98;;
55112;SDS011;41006;50.920;3.456;2023-07-16T01:01:05;14.43;;;13.00;;
55112;SDS011;41006;50.920;3.456;2023-07-16T01:01:36;16.83;;;13.13;;
55112;SDS011;41006;50.920;3.456;2023-07-16T01:02:11;13.10;;;11.95;;
55112;SDS011;41006;50.920;3.456;2023-07-16T01:02:44;17.58;;;13.05;;
55112;SDS011;41006;50.920;3.456;2023-07-16T01:03:14;12.77;;;11.73;;
55112;SDS011;41006;50.920;3.456;2023-07-16T01:03:45;12.85;;;11.55;;
55112;SDS011;41006;50.920;3.456;2023-07-16T01:04:18;12.82;;;11.60;;
55112;SDS011;41006;50.920;3.456;2023-07-16T01:04:48;11.98;;;10.75;;
55112;SDS011;41006;50.920;3.456;2023-07-16T01:05:18;14.57;;;9.98;;
55112;SDS011;41006;50.920;3.456;2023-07-16T01:06:44;15.68;;;10.88;;
55112;SDS011;41006;50.920;3.456;2023-07-16T01:07:23;13.63;;;10.02;;
55112;SDS011;41006;50.920;3.456;2023-07-16T01:07:59;10.95;;;9.90;;
55112;SDS011;41006;50.920;3.456;2023-07-16T01:08:46;13.60;;;10.45;;
55112;SDS011;41006;50.920;3.456;2023-07-16T01:09:22;12.75;;;9.98;;
55112;SDS011;41006;50.920;3.456;2023-07-16T01:09:52;13.95;;;10.15;;
55112;SDS011;41006;50.920;3.456;2023-07-16T01:10:28;10.70;;;9.65;;
55112;SDS011;41006;50.920;3.456;2023-07-16T01:10:59;11.80;;;10.43;;
55112;SDS011;41006;50.920;3.456;2023-07-16T01:11:31;12.65;;;10.10;;
55112;SDS011;41006;50.920;3.456;2023-07-16T01:12:02;10.85;;;9.82;;
55112;SDS011;41006;50.920;3.456;2023-07-16T01:12:37;14.60;;;10.75;;
55112;SDS011;41006;50.920;3.456;2023-07-16T01:13:08;15.75;;;10.65;;
55112;SDS011;41006;50.920;3.456;2023-07-16T01:13:39;12.45;;;10.50;;
55112;SDS011;41006;50.920;3.456;2023-07-16T01:14:12;15.35;;;11.27;;
55112;SDS011;41006;50.920;3.456;2023-07-16T01:14:44;11.15;;;10.10;;
55112;SDS011;41006;50.920;3.456;2023-07-16T01:15:18;11.57;;;10.13;;
55112;SDS011;41006;50.920;3.456;2023-07-16T01:15:54;13.75;;;10.88;;
55112;SDS011;41006;50.920;3.456;2023-07-16T01:16:24;13.63;;;10.45;;
55112;SDS011;41006;50.920;3.456;2023-07-16T01:16:57;11.73;;;10.18;;
55112;SDS011;41006;50.920;3.456;2023-07-16T01:17:30;15.02;;;10.25;;
55112;SDS011;41006;50.920;3.456;2023-07-16T01:18:00;11.60;;;10.60;;
55112;SDS011;41006;50.920;3.456;2023-07-16T01:18:31;12.25;;;10.18;;
55112;SDS011;41006;50.920;3.456;2023-07-16T01:19:01;12.73;;;10.90;;
55112;SDS011;41006;50.920;3.456;2023-07-16T01:19:35;13.85;;;10.43;;
55112;SDS011;41006;50.920;3.456;2023-07-16T01:20:06;11.23;;;10.13;;
55112;SDS011;41006;50.920;3.456;2023-07-16T01:20:36;12.52;;;10.35;;
55112;SDS011;41006;50.920;3.456;2023-07-16T01:21:10;11.13;;;9.30;;
55112;SDS011;41006;50.920;3.456;2023-07-16T01:22:43;9.70;;;8.68;;
55112;SDS011;41006;50.920;3.456;2023-07-16T01:25:24;10.02;;;8.75;;
55112;SDS011;41006;50.920;3.456;2023-07-16T01:26:05;13.18;;;8.50;;
55112;SDS011;41006;50.920;3.456;2023-07-16T01:26:51;12.40;;;8.93;;
55112;SDS011;41006;50.920;3.456;2023-07-16T01:30:22;8.73;;;7.55;;
55112;SDS011;41006;50.920;3.456;2023-07-16T01:30:53;9.15;;;7.22;;
55112;SDS011;41006;50.920;3.456;2023-07-16T01:31:32;9.57;;;8.13;;
55112;SDS011;41006;50.920;3.456;2023-07-16T01:32:08;16.42;;;7.93;;
55112;SDS011;41006;50.920;3.456;2023-07-16T01:32:42;10.35;;;8.13;;
55112;SDS011;41006;50.920;3.456;2023-07-16T01:33:15;13.48;;;7.47;;
55112;SDS011;41006;50.920;3.456;2023-07-16T01:33:49;11.20;;;8.20;;
55112;SDS011;41006;50.920;3.456;2023-07-16T01:34:23;9.82;;;8.00;;
55112;SDS011;41006;50.920;3.456;2023-07-16T01:34:55;10.77;;;8.05;;
55112;SDS011;41006;50.920;3.456;2023-07-16T01:35:30;8.88;;;7.88;;
55112;SDS011;41006;50.920;3.456;2023-07-16T01:36:04;8.23;;;7.32;;
55112;SDS011;41006;50.920;3.456;2023-07-16T01:36:36;9.73;;;7.78;;
55112;SDS011;41006;50.920;3.456;2023-07-16T01:37:09;12.43;;;7.60;;
55112;SDS011;41006;50.920;3.456;2023-07-16T01:37:43;12.98;;;7.72;;
55112;SDS011;41006;50.920;3.456;2023-07-16T01:38:18;9.70;;;7.70;;
55112;SDS011;41006;50.920;3.456;2023-07-16T01:38:55;11.98;;;7.70;;
55112;SDS011;41006;50.920;3.456;2023-07-16T01:39:31;8.52;;;6.78;;
55112;SDS011;41006;50.920;3.456;2023-07-16T01:40:05;12.52;;;8.07;;
55112;SDS011;41006;50.920;3.456;2023-07-16T01:40:41;8.65;;;7.82;;
55112;SDS011;41006;50.920;3.456;2023-07-16T01:41:14;8.88;;;7.65;;
55112;SDS011;41006;50.920;3.456;2023-07-16T01:41:47;13.50;;;9.02;;
55112;SDS011;41006;50.920;3.456;2023-07-16T01:42:17;8.43;;;7.50;;
55112;SDS011;41006;50.920;3.456;2023-07-16T01:42:52;7.97;;;7.22;;
55112;SDS011;41006;50.920;3.456;2023-07-16T01:43:26;12.05;;;8.00;;
55112;SDS011;41006;50.920;3.456;2023-07-16T01:43:56;10.82;;;7.32;;
55112;SDS011;41006;50.920;3.456;2023-07-16T01:44:26;10.95;;;8.15;;
55112;SDS011;41006;50.920;3.456;2023-07-16T01:44:59;9.30;;;7.35;;
55112;SDS011;41006;50.920;3.456;2023-07-16T01:45:29;12.57;;;8.30;;
55112;SDS011;41006;50.920;3.456;2023-07-16T01:45:59;10.90;;;7.63;;
55112;SDS011;41006;50.920;3.456;2023-07-16T01:46:32;11.98;;;7.95;;
55112;SDS011;41006;50.920;3.456;2023-07-16T01:47:13;10.18;;;7.60;;
55112;SDS011;41006;50.920;3.456;2023-07-16T01:48:04;9.00;;;7.97;;
55112;SDS011;41006;50.920;3.456;2023-07-16T01:48:36;10.13;;;8.30;;
55112;SDS011;41006;50.920;3.456;2023-07-16T01:49:10;13.55;;;8.45;;
55112;SDS011;41006;50.920;3.456;2023-07-16T01:49:41;8.80;;;7.88;;
55112;SDS011;41006;50.920;3.456;2023-07-16T01:50:14;9.63;;;7.65;;
55112;SDS011;41006;50.920;3.456;2023-07-16T01:50:46;10.98;;;7.43;;
55112;SDS011;41006;50.920;3.456;2023-07-16T01:51:19;8.38;;;7.57;;
55112;SDS011;41006;50.920;3.456;2023-07-16T01:51:54;10.38;;;7.90;;
55112;SDS011;41006;50.920;3.456;2023-07-16T01:52:25;12.15;;;8.40;;
55112;SDS011;41006;50.920;3.456;2023-07-16T01:52:58;9.25;;;7.65;;
55112;SDS011;41006;50.920;3.456;2023-07-16T01:53:33;11.15;;;7.80;;
55112;SDS011;41006;50.920;3.456;2023-07-16T01:54:06;9.75;;;7.43;;
55112;SDS011;41006;50.920;3.456;2023-07-16T01:54:38;9.50;;;7.35;;
55112;SDS011;41006;50.920;3.456;2023-07-16T01:55:09;11.43;;;6.95;;
55112;SDS011;41006;50.920;3.456;2023-07-16T01:55:42;9.23;;;7.18;;
55112;SDS011;41006;50.920;3.456;2023-07-16T01:56:12;11.10;;;8.05;;
55112;SDS011;41006;50.920;3.456;2023-07-16T01:56:47;12.73;;;7.68;;
55112;SDS011;41006;50.920;3.456;2023-07-16T01:57:20;11.18;;;7.90;;
55112;SDS011;41006;50.920;3.456;2023-07-16T01:57:51;8.73;;;7.55;;
55112;SDS011;41006;50.920;3.456;2023-07-16T01:58:24;8.48;;;7.65;;
55112;SDS011;41006;50.920;3.456;2023-07-16T01:58:57;10.60;;;7.57;;
55112;SDS011;41006;50.920;3.456;2023-07-16T01:59:27;10.57;;;7.53;;
55112;SDS011;41006;50.920;3.456;2023-07-16T01:59:58;10.23;;;8.10;;
55112;SDS011;41006;50.920;3.456;2023-07-16T02:00:28;11.35;;;7.85;;
55112;SDS011;41006;50.920;3.456;2023-07-16T02:00:58;8.48;;;7.60;;
55112;SDS011;41006;50.920;3.456;2023-07-16T02:01:32;11.52;;;7.60;;
55112;SDS011;41006;50.920;3.456;2023-07-16T02:02:02;13.05;;;7.90;;
55112;SDS011;41006;50.920;3.456;2023-07-16T02:02:36;8.60;;;7.78;;
55112;SDS011;41006;50.920;3.456;2023-07-16T02:03:06;12.30;;;7.97;;
55112;SDS011;41006;50.920;3.456;2023-07-16T02:03:39;10.85;;;8.18;;
55112;SDS011;41006;50.920;3.456;2023-07-16T02:04:09;10.65;;;7.57;;
55112;SDS011;41006;50.920;3.456;2023-07-16T02:04:45;8.85;;;8.02;;
55112;SDS011;41006;50.920;3.456;2023-07-16T02:05:17;9.43;;;8.40;;
55112;SDS011;41006;50.920;3.456;2023-07-16T02:05:48;11.40;;;8.27;;
55112;SDS011;41006;50.920;3.456;2023-07-16T02:06:22;9.15;;;7.65;;
55112;SDS011;41006;50.920;3.456;2023-07-16T02:06:53;8.85;;;7.18;;
55112;SDS011;41006;50.920;3.456;2023-07-16T02:07:23;8.63;;;7.47;;
55112;SDS011;41006;50.920;3.456;2023-07-16T02:07:54;13.20;;;7.78;;
55112;SDS011;41006;50.920;3.456;2023-07-16T02:08:27;15.85;;;8.43;;
55112;SDS011;41006;50.920;3.456;2023-07-16T02:08:59;11.32;;;7.60;;
55112;SDS011;41006;50.920;3.456;2023-07-16T02:09:30;10.15;;;8.23;;
55112;SDS011;41006;50.920;3.456;2023-07-16T02:10:00;11.65;;;7.65;;
55112;SDS011;41006;50.920;3.456;2023-07-16T02:10:35;10.55;;;7.80;;
55112;SDS011;41006;50.920;3.456;2023-07-16T02:11:06;11.30;;;7.65;;
55112;SDS011;41006;50.920;3.456;2023-07-16T02:11:38;11.35;;;8.30;;
55112;SDS011;41006;50.920;3.456;2023-07-16T02:12:11;11.25;;;8.02;;
55112;SDS011;41006;50.920;3.456;2023-07-16T02:12:44;10.70;;;7.85;;
55112;SDS011;41006;50.920;3.456;2023-07-16T02:13:14;10.98;;;7.88;;
55112;SDS011;41006;50.920;3.456;2023-07-16T02:13:47;8.98;;;6.97;;
55112;SDS011;41006;50.920;3.456;2023-07-16T02:14:19;9.48;;;7.55;;
55112;SDS011;41006;50.920;3.456;2023-07-16T02:14:50;10.23;;;7.50;;
55112;SDS011;41006;50.920;3.456;2023-07-16T02:15:20;15.88;;;8.18;;
55112;SDS011;41006;50.920;3.456;2023-07-16T02:15:55;11.73;;;7.80;;
55112;SDS011;41006;50.920;3.456;2023-07-16T02:16:25;10.48;;;7.85;;
55112;SDS011;41006;50.920;3.456;2023-07-16T02:16:58;15.05;;;8.15;;
55112;SDS011;41006;50.920;3.456;2023-07-16T02:17:32;10.25;;;8.02;;
55112;SDS011;41006;50.920;3.456;2023-07-16T02:18:05;13.68;;;7.93;;
55112;SDS011;41006;50.920;3.456;2023-07-16T02:18:42;11.23;;;8.23;;
55112;SDS011;41006;50.920;3.456;2023-07-16T02:19:18;12.60;;;7.88;;
55112;SDS011;41006;50.920;3.456;2023-07-16T02:19:50;9.88;;;7.60;;
55112;SDS011;41006;50.920;3.456;2023-07-16T02:20:23;11.30;;;7.80;;
55112;SDS011;41006;50.920;3.456;2023-07-16T02:20:56;10.73;;;8.23;;
55112;SDS011;41006;50.920;3.456;2023-07-16T02:21:31;12.73;;;8.48;;
55112;SDS011;41006;50.920;3.456;2023-07-16T02:22:02;11.50;;;8.00;;
55112;SDS011;41006;50.920;3.456;2023-07-16T02:22:35;11.18;;;8.13;;
55112;SDS011;41006;50.920;3.456;2023-07-16T02:23:10;9.75;;;7.85;;
55112;SDS011;41006;50.920;3.456;2023-07-16T02:23:42;12.52;;;7.65;;
55112;SDS011;41006;50.920;3.456;2023-07-16T02:24:16;11.40;;;7.45;;
55112;SDS011;41006;50.920;3.456;2023-07-16T02:24:49;9.57;;;7.50;;
55112;SDS011;41006;50.920;3.456;2023-07-16T02:25:22;8.85;;;7.32;;
55112;SDS011;41006;50.920;3.456;2023-07-16T02:25:57;11.75;;;8.48;;
55112;SDS011;41006;50.920;3.456;2023-07-16T02:26:27;12.57;;;7.38;;
55112;SDS011;41006;50.920;3.456;2023-07-16T02:26:58;11.27;;;8.70;;
55112;SDS011;41006;50.920;3.456;2023-07-16T02:27:34;11.10;;;7.55;;
55112;SDS011;41006;50.920;3.456;2023-07-16T02:28:04;15.20;;;7.47;;
55112;SDS011;41006;50.920;3.456;2023-07-16T02:28:35;10.75;;;8.10;;
55112;SDS011;41006;50.920;3.456;2023-07-16T02:29:07;13.25;;;7.82;;
55112;SDS011;41006;50.920;3.456;2023-07-16T02:29:38;14.60;;;8.13;;
55112;SDS011;41006;50.920;3.456;2023-07-16T02:30:13;7.82;;;7.03;;
55112;SDS011;41006;50.920;3.456;2023-07-16T02:30:48;12.85;;;7.70;;
55112;SDS011;41006;50.920;3.456;2023-07-16T02:31:19;13.77;;;7.97;;
55112;SDS011;41006;50.920;3.456;2023-07-16T02:31:54;15.55;;;8.30;;
55112;SDS011;41006;50.920;3.456;2023-07-16T02:32:25;9.45;;;7.68;;
55112;SDS011;41006;50.920;3.456;2023-07-16T02:32:58;12.60;;;8.15;;
55112;SDS011;41006;50.920;3.456;2023-07-16T02:33:33;16.25;;;8.30;;
55112;SDS011;41006;50.920;3.456;2023-07-16T02:34:06;12.65;;;8.32;;
55112;SDS011;41006;50.920;3.456;2023-07-16T02:34:36;9.10;;;8.00;;
55112;SDS011;41006;50.920;3.456;2023-07-16T02:35:07;12.52;;;8.73;;
55112;SDS011;41006;50.920;3.456;2023-07-16T02:35:40;11.63;;;7.68;;
55112;SDS011;41006;50.920;3.456;2023-07-16T02:36:13;13.05;;;8.43;;
55112;SDS011;41006;50.920;3.456;2023-07-16T02:36:43;14.15;;;9.02;;
55112;SDS011;41006;50.920;3.456;2023-07-16T02:37:14;15.85;;;8.63;;
55112;SDS011;41006;50.920;3.456;2023-07-16T02:37:46;12.73;;;8.48;;
55112;SDS011;41006;50.920;3.456;2023-07-16T02:38:19;14.13;;;8.60;;
55112;SDS011;41006;50.920;3.456;2023-07-16T02:38:52;15.98;;;8.48;;
55112;SDS011;41006;50.920;3.456;2023-07-16T02:39:24;13.23;;;8.63;;
55112;SDS011;41006;50.920;3.456;2023-07-16T02:39:55;12.88;;;7.63;;
55112;SDS011;41006;50.920;3.456;2023-07-16T02:40:25;11.82;;;8.20;;
55112;SDS011;41006;50.920;3.456;2023-07-16T02:40:58;11.45;;;8.38;;
55112;SDS011;41006;50.920;3.456;2023-07-16T02:41:33;12.30;;;8.48;;
55112;SDS011;41006;50.920;3.456;2023-07-16T02:42:03;12.20;;;8.15;;
55112;SDS011;41006;50.920;3.456;2023-07-16T02:42:39;12.48;;;8.48;;
55112;SDS011;41006;50.920;3.456;2023-07-16T02:43:09;11.50;;;8.07;;
55112;SDS011;41006;50.920;3.456;2023-07-16T02:43:40;11.93;;;8.32;;
55112;SDS011;41006;50.920;3.456;2023-07-16T02:44:18;12.38;;;8.05;;
55112;SDS011;41006;50.920;3.456;2023-07-16T02:44:50;11.60;;;8.25;;
55112;SDS011;41006;50.920;3.456;2023-07-16T02:45:21;9.80;;;7.50;;
55112;SDS011;41006;50.920;3.456;2023-07-16T02:45:51;10.75;;;7.53;;
55112;SDS011;41006;50.920;3.456;2023-07-16T02:46:24;13.45;;;8.23;;
55112;SDS011;41006;50.920;3.456;2023-07-16T02:46:59;14.88;;;8.73;;
55112;SDS011;41006;50.920;3.456;2023-07-16T02:47:36;11.63;;;7.30;;
55112;SDS011;41006;50.920;3.456;2023-07-16T02:48:12;10.45;;;7.85;;
55112;SDS011;41006;50.920;3.456;2023-07-16T02:48:47;12.32;;;7.85;;
55112;SDS011;41006;50.920;3.456;2023-07-16T02:49:17;12.43;;;7.45;;
55112;SDS011;41006;50.920;3.456;2023-07-16T02:49:50;11.52;;;7.45;;
55112;SDS011;41006;50.920;3.456;2023-07-16T02:50:24;8.27;;;6.40;;
55112;SDS011;41006;50.920;3.456;2023-07-16T02:50:54;13.55;;;7.90;;
55112;SDS011;41006;50.920;3.456;2023-07-16T02:51:25;12.95;;;8.00;;
55112;SDS011;41006;50.920;3.456;2023-07-16T02:52:01;12.45;;;8.00;;
55112;SDS011;41006;50.920;3.456;2023-07-16T02:52:37;9.05;;;7.65;;
55112;SDS011;41006;50.920;3.456;2023-07-16T02:53:10;13.20;;;7.60;;
55112;SDS011;41006;50.920;3.456;2023-07-16T02:53:40;11.57;;;7.43;;
55112;SDS011;41006;50.920;3.456;2023-07-16T02:54:12;11.38;;;7.72;;
55112;SDS011;41006;50.920;3.456;2023-07-16T02:54:48;11.82;;;7.70;;
55112;SDS011;41006;50.920;3.456;2023-07-16T02:55:18;15.77;;;7.97;;
55112;SDS011;41006;50.920;3.456;2023-07-16T02:55:51;13.48;;;8.15;;
55112;SDS011;41006;50.920;3.456;2023-07-16T02:56:23;11.32;;;7.90;;
55112;SDS011;41006;50.920;3.456;2023-07-16T02:56:54;9.48;;;7.88;;
55112;SDS011;41006;50.920;3.456;2023-07-16T02:57:24;15.07;;;8.48;;
55112;SDS011;41006;50.920;3.456;2023-07-16T02:57:57;10.52;;;7.15;;
55112;SDS011;41006;50.920;3.456;2023-07-16T02:58:32;12.07;;;7.60;;
55112;SDS011;41006;50.920;3.456;2023-07-16T02:59:05;12.07;;;7.68;;
55112;SDS011;41006;50.920;3.456;2023-07-16T02:59:37;12.57;;;7.85;;
55112;SDS011;41006;50.920;3.456;2023-07-16T03:00:08;12.30;;;7.80;;
55112;SDS011;41006;50.920;3.456;2023-07-16T03:00:41;13.70;;;8.55;;
55112;SDS011;41006;50.920;3.456;2023-07-16T03:01:14;9.63;;;7.93;;
55112;SDS011;41006;50.920;3.456;2023-07-16T03:01:46;16.02;;;7.72;;
55112;SDS011;41006;50.920;3.456;2023-07-16T03:02:17;13.68;;;8.50;;
55112;SDS011;41006;50.920;3.456;2023-07-16T03:02:47;12.43;;;7.97;;
55112;SDS011;41006;50.920;3.456;2023-07-16T03:03:19;15.73;;;8.30;;
55112;SDS011;41006;50.920;3.456;2023-07-16T03:03:49;9.48;;;7.88;;
55112;SDS011;41006;50.920;3.456;2023-07-16T03:04:19;10.90;;;7.38;;
55112;SDS011;41006;50.920;3.456;2023-07-16T03:04:52;12.68;;;7.90;;
55112;SDS011;41006;50.920;3.456;2023-07-16T03:05:22;13.88;;;8.18;;
55112;SDS011;41006;50.920;3.456;2023-07-16T03:05:55;12.85;;;7.40;;
55112;SDS011;41006;50.920;3.456;2023-07-16T03:06:28;10.63;;;7.93;;
55112;SDS011;41006;50.920;3.456;2023-07-16T03:06:58;11.90;;;7.68;;
55112;SDS011;41006;50.920;3.456;2023-07-16T03:07:33;12.88;;;8.38;;
55112;SDS011;41006;50.920;3.456;2023-07-16T03:08:04;12.02;;;7.82;;
55112;SDS011;41006;50.920;3.456;2023-07-16T03:08:37;15.48;;;9.32;;
55112;SDS011;41006;50.920;3.456;2023-07-16T03:09:10;11.27;;;7.97;;
55112;SDS011;41006;50.920;3.456;2023-07-16T03:09:45;10.88;;;8.20;;
55112;SDS011;41006;50.920;3.456;2023-07-16T03:10:17;12.48;;;8.90;;
55112;SDS011;41006;50.920;3.456;2023-07-16T03:10:50;11.73;;;7.35;;
55112;SDS011;41006;50.920;3.456;2023-07-16T03:11:23;10.45;;;7.30;;
55112;SDS011;41006;50.920;3.456;2023-07-16T03:11:56;12.88;;;7.95;;
55112;SDS011;41006;50.920;3.456;2023-07-16T03:12:26;10.40;;;7.88;;
55112;SDS011;41006;50.920;3.456;2023-07-16T03:12:57;15.23;;;9.02;;
55112;SDS011;41006;50.920;3.456;2023-07-16T03:13:29;14.70;;;8.20;;
55112;SDS011;41006;50.920;3.456;2023-07-16T03:13:59;12.38;;;7.72;;
55112;SDS011;41006;50.920;3.456;2023-07-16T03:14:32;10.38;;;7.88;;
55112;SDS011;41006;50.920;3.456;2023-07-16T03:15:02;11.30;;;8.15;;
55112;SDS011;41006;50.920;3.456;2023-07-16T03:15:33;16.05;;;8.63;;
55112;SDS011;41006;50.920;3.456;2023-07-16T03:16:04;15.05;;;8.25;;
55112;SDS011;41006;50.920;3.456;2023-07-16T03:16:36;14.27;;;7.90;;
55112;SDS011;41006;50.920;3.456;2023-07-16T03:17:09;14.63;;;8.07;;
55112;SDS011;41006;50.920;3.456;2023-07-16T03:17:41;16.45;;;7.50;;
55112;SDS011;41006;50.920;3.456;2023-07-16T03:18:12;11.93;;;7.75;;
55112;SDS011;41006;50.920;3.456;2023-07-16T03:18:43;11.38;;;7.78;;
55112;SDS011;41006;50.920;3.456;2023-07-16T03:19:14;11.45;;;7.63;;
55112;SDS011;41006;50.920;3.456;2023-07-16T03:19:47;13.20;;;8.57;;